Rajiv Gandhi International Airport

Airport
ICAO code: 
VOHS
IATA Code: 
HYD
Summary
ICAO Region: 
APAC
Territory: 
Location: 
Shamshabad, Telangana
Serving: 
Hyderabad
Elevation: 
2024 ft
Coordinates: 
Aerial View: 
17° 14' 11.967" N, 78° 25' 47.621" E
Metar
Observation
VOHS 270000Z 10005KT 5000 BR SCT015 SCT100 19/18 Q1016 NOSIG
Station
RAJIV GANDHI INL
Date/Time
2021-11-27 00:00:00
Wind direction
100°
Wind speed
05 kts
Lowest cloud amount
scattered clouds
Temperature
19°C
Dew point
18°C
Humidity
93%
QNH
1016 hPa
Weather condition
n/a

Rajiv Gandhi International Airport, also known as Hyderabad International Airport, is an international airport located near Shamshabad, 22 km south of the central business district of Hyderabad, a city in the state of Andhra Pradesh, India.

Climatology

Tropical Savanna climate (Köppen climate classification Aw) - monthly mean temperatures above 18°C, and a pronounced dry season. A Tropical Savanna climate has more pronounced dry seasons than a Tropical Monsoon climate.

Runways

Designator Length Width Surface Rops
9/27 4260 60 paved Yes/Yes
Airport map: 
Aerial View: 

SKYbrary Partners:

Safety knowledge contributed by: